createdAt,value
2019-02-10T00:01:55.993Z,97982.73
2019-02-10T00:04:28.910Z,97988.11
2019-02-10T00:07:01.323Z,97988.84
2019-02-10T00:09:33.391Z,97982.06
2019-02-10T00:12:06.236Z,97988.04
2019-02-10T00:14:38.619Z,97983.05
2019-02-10T00:17:10.831Z,97990.44
2019-02-10T00:19:43.187Z,97981.01
2019-02-10T00:22:16.686Z,97979.58
2019-02-10T00:24:49.500Z,97975.41
2019-02-10T00:27:21.657Z,97976.72
2019-02-10T00:29:54.172Z,97972.20
2019-02-10T00:32:26.888Z,97971.11
2019-02-10T00:34:59.238Z,97962.62
2019-02-10T00:37:31.322Z,97963.59
2019-02-10T00:40:03.790Z,97962.05
2019-02-10T00:42:36.153Z,97958.57
2019-02-10T00:45:08.583Z,97957.99
2019-02-10T00:47:40.882Z,97955.95
2019-02-10T00:50:12.954Z,97953.91
2019-02-10T00:52:45.056Z,97951.88
2019-02-10T00:55:17.169Z,97946.04
2019-02-10T00:57:49.392Z,97945.45
2019-02-10T01:00:21.846Z,97940.79
2019-02-10T01:02:54.189Z,97944.73
2019-02-10T01:05:26.298Z,97943.84
2019-02-10T01:07:58.579Z,97938.59
2019-02-10T01:10:30.928Z,97936.09
2019-02-10T01:13:03.258Z,97933.57
2019-02-10T01:15:35.601Z,97925.25
2019-02-10T01:18:07.785Z,97919.16
2019-02-10T01:20:39.877Z,97921.55
2019-02-10T01:23:12.664Z,97925.94
2019-02-10T01:25:45.415Z,97918.06
2019-02-10T01:28:18.090Z,97926.63
2019-02-10T01:30:50.715Z,97909.23
2019-02-10T01:33:23.048Z,97909.27
2019-02-10T01:35:55.112Z,97909.03
2019-02-10T01:38:28.138Z,97902.27
2019-02-10T01:41:01.215Z,97902.47
2019-02-10T01:43:34.049Z,97896.77
2019-02-10T01:46:07.102Z,97884.47
2019-02-10T01:48:39.458Z,97878.86
2019-02-10T01:51:11.830Z,97868.25
2019-02-10T01:53:44.576Z,97866.23
2019-02-10T01:56:16.925Z,97853.69
2019-02-10T01:58:49.150Z,97849.28
2019-02-10T02:01:21.814Z,97842.61
2019-02-10T02:03:54.270Z,97838.08
2019-02-10T02:06:26.618Z,97833.42
2019-02-10T02:08:59.165Z,97823.86
2019-02-10T02:11:32.074Z,97816.34
2019-02-10T02:14:04.467Z,97817.08
2019-02-10T02:16:36.499Z,97805.86
2019-02-10T02:19:08.656Z,97805.97
2019-02-10T02:21:41.453Z,97804.19
2019-02-10T02:24:13.826Z,97790.59
2019-02-10T02:26:46.306Z,97781.66
2019-02-10T02:29:18.715Z,97772.12
2019-02-10T02:31:51.669Z,97761.39
2019-02-10T02:34:24.844Z,97762.20
2019-02-10T02:36:56.982Z,97765.67
2019-02-10T02:39:29.061Z,97766.88
2019-02-10T02:42:01.164Z,97764.86
2019-02-10T02:44:33.620Z,97757.67
2019-02-10T02:47:06.246Z,97750.75
2019-02-10T02:49:38.607Z,97755.06
2019-02-10T02:52:10.779Z,97745.26
2019-02-10T02:54:42.927Z,97740.13
2019-02-10T02:57:15.184Z,97735.97
2019-02-10T02:59:47.546Z,97733.38
2019-02-10T03:02:19.939Z,97729.76
2019-02-10T03:04:52.276Z,97723.82
2019-02-10T03:07:24.436Z,97709.50
2019-02-10T03:09:56.700Z,97704.45
2019-02-10T03:12:29.424Z,97702.34
2019-02-10T03:15:01.943Z,97703.39
2019-02-10T03:17:34.534Z,97705.94
2019-02-10T03:20:07.566Z,97689.20
2019-02-10T03:22:39.959Z,97690.78
2019-02-10T03:25:12.319Z,97693.63
2019-02-10T03:27:44.422Z,97688.39
2019-02-10T03:30:16.490Z,97681.16
2019-02-10T03:32:48.539Z,97674.36
2019-02-10T03:35:21.164Z,97668.63
2019-02-10T03:37:53.500Z,97657.14
2019-02-10T03:40:25.869Z,97648.50
2019-02-10T03:42:57.921Z,97640.44
2019-02-10T03:45:30.013Z,97627.19
2019-02-10T03:48:02.180Z,97630.59
2019-02-10T03:50:34.265Z,97626.27
2019-02-10T03:53:06.359Z,97616.36
2019-02-10T03:55:38.476Z,97632.70
2019-02-10T03:58:10.611Z,97625.64
2019-02-10T04:00:43.186Z,97625.47
2019-02-10T04:03:15.585Z,97619.31
2019-02-10T04:05:48.408Z,97614.20
2019-02-10T04:08:20.777Z,97609.67
2019-02-10T04:10:53.287Z,97612.16
2019-02-10T04:13:26.107Z,97616.11
2019-02-10T04:15:58.488Z,97611.95
2019-02-10T04:18:30.546Z,97590.35
2019-02-10T04:21:02.788Z,97583.05
2019-02-10T04:23:35.130Z,97572.30
2019-02-10T04:26:07.616Z,97558.50
2019-02-10T04:28:39.959Z,97554.55
2019-02-10T04:31:12.047Z,97558.66
2019-02-10T04:33:44.113Z,97563.11
2019-02-10T04:36:16.753Z,97545.34
2019-02-10T04:38:48.910Z,97536.59
2019-02-10T04:41:20.991Z,97536.98
2019-02-10T04:43:53.053Z,97527.92
2019-02-10T04:46:25.225Z,97519.52
2019-02-10T04:48:57.552Z,97517.16
2019-02-10T04:51:29.715Z,97503.75
2019-02-10T04:54:02.301Z,97485.55
2019-02-10T04:56:34.622Z,97481.73
2019-02-10T04:59:06.830Z,97477.02
2019-02-10T05:01:38.974Z,97470.56
2019-02-10T05:04:11.416Z,97457.09
2019-02-10T05:06:43.785Z,97464.64
2019-02-10T05:09:16.180Z,97467.60
2019-02-10T05:11:48.549Z,97453.98
2019-02-10T05:14:21.486Z,97449.03
2019-02-10T05:16:53.531Z,97444.23
2019-02-10T05:19:26.240Z,97423.83
2019-02-10T05:21:58.339Z,97392.13
2019-02-10T05:24:30.872Z,97397.95
2019-02-10T05:27:03.237Z,97404.23
2019-02-10T05:29:35.363Z,97412.91
2019-02-10T05:32:07.497Z,97413.02
2019-02-10T05:34:39.624Z,97413.88
2019-02-10T05:37:11.671Z,97406.33
2019-02-10T05:39:44.728Z,97402.92
2019-02-10T05:42:17.072Z,97385.55
2019-02-10T05:44:49.188Z,97376.06
2019-02-10T05:47:21.414Z,97375.98
2019-02-10T05:49:53.896Z,97393.28
2019-02-10T05:52:26.715Z,97403.94
2019-02-10T05:54:59.065Z,97399.80
2019-02-10T05:57:31.211Z,97393.14
2019-02-10T06:00:03.608Z,97392.63
2019-02-10T06:02:36.157Z,97385.52
2019-02-10T06:05:19.236Z,97373.73
2019-02-10T06:07:51.555Z,97357.56
2019-02-10T06:10:23.661Z,97325.09
2019-02-10T06:12:55.719Z,97297.05
2019-02-10T06:15:28.702Z,97300.02
2019-02-10T06:18:01.168Z,97299.15
2019-02-10T06:20:33.609Z,97292.00
2019-02-10T06:23:06.117Z,97295.29
2019-02-10T06:25:38.622Z,97319.48
2019-02-10T06:28:11.058Z,97339.86
2019-02-10T06:30:43.585Z,97350.00
2019-02-10T06:33:16.146Z,97337.04
2019-02-10T06:35:48.527Z,97325.27
2019-02-10T06:38:22.792Z,97313.67
2019-02-10T06:40:55.411Z,97298.48
2019-02-10T06:43:27.762Z,97281.38
2019-02-10T06:45:59.865Z,97277.17
2019-02-10T06:48:32.437Z,97264.45
2019-02-10T06:51:05.022Z,97283.17
2019-02-10T06:53:37.393Z,97276.70
2019-02-10T06:56:09.806Z,97261.93
2019-02-10T06:58:42.196Z,97289.50
2019-02-10T07:01:28.064Z,97283.03
2019-02-10T07:04:26.986Z,97229.24
2019-02-10T07:06:59.640Z,97197.60
2019-02-10T07:09:32.195Z,97217.35
2019-02-10T07:12:49.403Z,97234.40
2019-02-10T07:16:15.955Z,97219.46
2019-02-10T07:19:42.615Z,97209.92
2019-02-10T07:22:56.205Z,97216.98
2019-02-10T07:26:02.323Z,97218.94
2019-02-10T07:29:03.494Z,97212.67
2019-02-10T07:31:55.139Z,97220.25
2019-02-10T07:35:27.416Z,97220.73
2019-02-10T07:38:41.153Z,97217.26
2019-02-10T07:41:53.172Z,97219.20
2019-02-10T07:45:17.117Z,97216.39
2019-02-10T07:48:35.988Z,97212.98
2019-02-10T07:52:08.789Z,97201.00
2019-02-10T07:55:52.361Z,97205.97
2019-02-10T07:59:25.454Z,97199.34
2019-02-10T08:03:13.360Z,97190.31
2019-02-10T08:06:22.565Z,97188.00
2019-02-10T08:09:59.639Z,97188.69
2019-02-10T08:13:33.079Z,97178.25
2019-02-10T08:17:18.998Z,97171.67
2019-02-10T08:20:50.074Z,97173.64
2019-02-10T08:24:22.082Z,97174.18
2019-02-10T08:27:49.017Z,97172.11
2019-02-10T08:31:19.365Z,97180.55
2019-02-10T08:34:48.206Z,97195.52
2019-02-10T08:38:28.399Z,97178.00
2019-02-10T08:42:04.387Z,97154.88
2019-02-10T08:45:18.154Z,97142.06
2019-02-10T08:48:50.559Z,97117.76
2019-02-10T08:51:54.314Z,97101.81
2019-02-10T08:54:29.215Z,97092.64
2019-02-10T08:57:01.865Z,97070.30
2019-02-10T08:59:33.940Z,97058.91
2019-02-10T09:02:06.581Z,97039.02
2019-02-10T09:04:38.651Z,97025.54
2019-02-10T09:07:11.280Z,97019.27
2019-02-10T09:09:43.719Z,97004.91
2019-02-10T09:12:16.046Z,97011.50
2019-02-10T09:14:48.106Z,97003.58
2019-02-10T09:17:20.173Z,97000.46
2019-02-10T09:19:52.863Z,96990.73
2019-02-10T09:22:25.308Z,96986.30
2019-02-10T09:24:57.868Z,96975.22
2019-02-10T09:27:30.197Z,96965.81
2019-02-10T09:30:02.346Z,96951.65
2019-02-10T09:32:34.877Z,96942.40
2019-02-10T09:35:08.131Z,96939.75
2019-02-10T09:37:40.247Z,96920.59
2019-02-10T09:40:12.804Z,96908.05
2019-02-10T09:42:45.399Z,96902.11
2019-02-10T09:45:17.834Z,96906.05
2019-02-10T09:47:50.235Z,96912.64
2019-02-10T09:50:23.262Z,96917.73
2019-02-10T09:52:55.652Z,96908.28
2019-02-10T09:55:27.731Z,96899.86
2019-02-10T09:57:59.867Z,96887.46
2019-02-10T10:00:32.578Z,96880.34
2019-02-10T10:03:05.177Z,96883.09
2019-02-10T10:05:37.591Z,96869.88
2019-02-10T10:08:10.035Z,96878.13
2019-02-10T10:10:42.363Z,96878.95
2019-02-10T10:13:14.884Z,96873.50
2019-02-10T10:15:50.467Z,96868.81
2019-02-10T10:18:23.180Z,96862.98
2019-02-10T10:20:55.626Z,96853.89
2019-02-10T10:23:27.958Z,96847.25
2019-02-10T10:26:00.016Z,96847.25
2019-02-10T10:28:34.270Z,96846.24
2019-02-10T10:31:12.760Z,96842.55
2019-02-10T10:33:45.387Z,96836.91
2019-02-10T10:36:17.928Z,96826.26
2019-02-10T10:38:50.278Z,96815.84
2019-02-10T10:41:22.805Z,96808.53
2019-02-10T10:43:55.144Z,96806.59
2019-02-10T10:46:27.224Z,96798.11
2019-02-10T10:48:59.392Z,96789.44
2019-02-10T10:51:31.798Z,96786.48
2019-02-10T10:54:04.584Z,96784.48
2019-02-10T10:56:36.959Z,96775.89
2019-02-10T10:59:09.736Z,96764.34
2019-02-10T11:01:42.103Z,96763.95
2019-02-10T11:04:14.719Z,96751.34
2019-02-10T11:06:47.064Z,96746.26
2019-02-10T11:09:19.152Z,96737.94
2019-02-10T11:11:52.030Z,96729.70
2019-02-10T11:14:24.250Z,96722.08
2019-02-10T11:16:56.401Z,96708.30
2019-02-10T11:19:28.531Z,96705.64
2019-02-10T11:22:00.607Z,96699.73
2019-02-10T11:24:32.680Z,96690.48
2019-02-10T11:27:04.898Z,96682.73
2019-02-10T11:29:37.157Z,96666.53
2019-02-10T11:32:09.514Z,96663.47
2019-02-10T11:34:46.218Z,96649.63
2019-02-10T11:37:16.210Z,96655.35
2019-02-10T11:39:48.569Z,96636.67
2019-02-10T11:42:20.897Z,96638.17
2019-02-10T11:44:52.950Z,96622.52
2019-02-10T11:47:25.723Z,96630.16
2019-02-10T11:49:58.131Z,96614.78
2019-02-10T11:52:30.282Z,96611.59
2019-02-10T11:55:02.656Z,96604.80
2019-02-10T11:57:35.350Z,96606.48
2019-02-10T12:00:09.538Z,96607.27
2019-02-10T12:02:42.529Z,96590.38
2019-02-10T12:05:15.321Z,96588.27
2019-02-10T12:07:48.056Z,96567.92
2019-02-10T12:10:20.378Z,96564.39
2019-02-10T12:12:53.372Z,96550.75
2019-02-10T12:15:24.436Z,96540.91
2019-02-10T12:17:56.462Z,96537.41
2019-02-10T12:20:28.823Z,96528.72
2019-02-10T12:23:01.171Z,96522.62
2019-02-10T12:25:33.229Z,96522.12
2019-02-10T12:28:05.308Z,96514.21
2019-02-10T12:30:37.368Z,96499.72
2019-02-10T12:33:09.442Z,96483.05
2019-02-10T12:35:41.558Z,96480.91
2019-02-10T12:38:13.712Z,96475.53
2019-02-10T12:40:45.764Z,96457.59
2019-02-10T12:43:18.121Z,96466.77
2019-02-10T12:45:50.447Z,96455.41
2019-02-10T12:48:23.126Z,96444.78
2019-02-10T12:50:55.456Z,96445.26
2019-02-10T12:53:27.523Z,96444.86
2019-02-10T12:55:59.618Z,96435.56
2019-02-10T12:58:32.356Z,96436.56
2019-02-10T13:01:04.778Z,96434.20
2019-02-10T13:03:37.222Z,96424.08
2019-02-10T13:06:09.636Z,96415.61
2019-02-10T13:08:41.987Z,96414.52
2019-02-10T13:11:14.049Z,96412.66
2019-02-10T13:13:46.190Z,96408.38
2019-02-10T13:16:18.575Z,96404.69
2019-02-10T13:18:51.157Z,96403.69
2019-02-10T13:21:23.648Z,96402.59
2019-02-10T13:23:56.150Z,96387.34
2019-02-10T13:26:28.849Z,96388.77
2019-02-10T13:29:01.202Z,96386.02
2019-02-10T13:31:33.593Z,96383.06
2019-02-10T13:34:06.228Z,96382.73
2019-02-10T13:36:38.657Z,96382.84
2019-02-10T13:39:11.930Z,96384.38
2019-02-10T13:41:42.001Z,96374.16
2019-02-10T13:44:14.650Z,96382.02
2019-02-10T13:46:47.077Z,96371.29
2019-02-10T13:49:19.474Z,96371.09
2019-02-10T13:51:51.831Z,96365.66
2019-02-10T13:54:24.179Z,96361.27
2019-02-10T13:56:56.522Z,96367.61
2019-02-10T13:59:28.609Z,96356.39
2019-02-10T14:02:01.034Z,96341.38
2019-02-10T14:04:33.703Z,96350.66
2019-02-10T14:07:06.035Z,96361.70
2019-02-10T14:09:38.103Z,96365.61
2019-02-10T14:12:10.213Z,96378.88
2019-02-10T14:14:42.289Z,96375.82
2019-02-10T14:17:14.364Z,96381.43
2019-02-10T14:19:46.910Z,96379.50
2019-02-10T14:22:19.591Z,96397.05
2019-02-10T14:24:51.981Z,96397.13
2019-02-10T14:27:25.220Z,96392.36
2019-02-10T14:29:56.229Z,96388.95
2019-02-10T14:32:28.465Z,96389.36
2019-02-10T14:35:00.813Z,96401.08
2019-02-10T14:37:33.224Z,96401.64
2019-02-10T14:40:08.078Z,96412.57
2019-02-10T14:42:40.729Z,96393.84
2019-02-10T14:45:13.263Z,96394.19
2019-02-10T14:47:46.068Z,96397.83
2019-02-10T14:50:18.858Z,96390.84
2019-02-10T14:52:51.174Z,96373.99
2019-02-10T14:55:23.215Z,96372.89
2019-02-10T14:57:55.369Z,96368.23
2019-02-10T15:00:27.712Z,96365.52
2019-02-10T15:02:59.887Z,96358.63
2019-02-10T15:05:32.226Z,96355.53
2019-02-10T15:08:04.287Z,96344.88
2019-02-10T15:10:41.761Z,96345.60
2019-02-10T15:13:11.537Z,96341.91
2019-02-10T15:15:42.528Z,96346.33
2019-02-10T15:18:15.044Z,96338.18
2019-02-10T15:20:47.368Z,96332.99
2019-02-10T15:23:19.481Z,96335.72
2019-02-10T15:25:53.926Z,96330.51
2019-02-10T15:28:26.161Z,96327.87
2019-02-10T15:30:58.964Z,96333.94
2019-02-10T15:33:31.363Z,96332.42
2019-02-10T15:36:03.680Z,96324.67
2019-02-10T15:38:35.753Z,96325.52
2019-02-10T15:41:08.535Z,96324.77
2019-02-10T15:43:41.178Z,96315.23
2019-02-10T15:46:13.792Z,96312.93
2019-02-10T15:48:46.446Z,96318.53
2019-02-10T15:51:19.166Z,96308.48
2019-02-10T15:53:51.763Z,96311.69
2019-02-10T15:56:24.120Z,96309.84
2019-02-10T15:58:56.799Z,96294.49
2019-02-10T16:01:29.110Z,96291.70
2019-02-10T16:04:01.172Z,96288.89
2019-02-10T16:06:33.481Z,96278.65
2019-02-10T16:09:06.512Z,96273.88
2019-02-10T16:11:38.882Z,96270.67
2019-02-10T16:14:11.235Z,96268.10
2019-02-10T16:16:43.841Z,96262.97
2019-02-10T16:19:16.594Z,96261.48
2019-02-10T16:21:48.916Z,96264.14
2019-02-10T16:24:21.336Z,96270.86
2019-02-10T16:26:54.040Z,96268.40
2019-02-10T16:29:26.782Z,96268.67
2019-02-10T16:31:59.511Z,96267.51
2019-02-10T16:34:31.958Z,96271.93
2019-02-10T16:37:05.054Z,96272.31
2019-02-10T16:39:36.120Z,96274.31
2019-02-10T16:42:08.080Z,96283.57
2019-02-10T16:44:40.442Z,96290.38
2019-02-10T16:47:12.858Z,96293.59
2019-02-10T16:49:45.191Z,96307.76
2019-02-10T16:52:17.386Z,96318.98
2019-02-10T16:54:49.810Z,96344.35
2019-02-10T16:57:22.618Z,96345.42
2019-02-10T16:59:55.234Z,96351.20
2019-02-10T17:02:27.569Z,96357.70
2019-02-10T17:05:00.335Z,96344.91
2019-02-10T17:07:32.640Z,96368.03
2019-02-10T17:10:04.742Z,96372.92
2019-02-10T17:12:36.886Z,96380.11
2019-02-10T17:15:10.908Z,96389.50
2019-02-10T17:17:44.329Z,96402.67
2019-02-10T17:20:17.202Z,96405.27
2019-02-10T17:22:49.374Z,96414.32
2019-02-10T17:25:22.024Z,96420.37
2019-02-10T17:27:54.698Z,96428.70
2019-02-10T17:30:27.055Z,96428.75
2019-02-10T17:32:59.137Z,96407.62
2019-02-10T17:35:31.384Z,96413.92
2019-02-10T17:38:03.998Z,96419.73
2019-02-10T17:40:41.412Z,96432.94
2019-02-10T17:43:14.039Z,96441.74
2019-02-10T17:45:46.524Z,96452.38
2019-02-10T17:48:18.912Z,96476.49
2019-02-10T17:50:50.994Z,96488.06
2019-02-10T17:53:23.354Z,96469.89
2019-02-10T17:55:55.688Z,96500.14
2019-02-10T17:58:27.767Z,96516.70
2019-02-10T18:00:59.842Z,96501.40
2019-02-10T18:03:32.809Z,96509.04
2019-02-10T18:06:05.588Z,96502.13
2019-02-10T18:08:37.819Z,96514.42
2019-02-10T18:11:10.141Z,96507.30
2019-02-10T18:13:42.714Z,96511.26
2019-02-10T18:16:33.106Z,96492.61
2019-02-10T18:19:11.622Z,96503.97
2019-02-10T18:22:03.113Z,96525.77
2019-02-10T18:25:07.383Z,96508.90
2019-02-10T18:27:56.457Z,96506.61
2019-02-10T18:30:38.145Z,96502.02
2019-02-10T18:33:35.868Z,96511.92
2019-02-10T18:36:26.399Z,96523.68
2019-02-10T18:39:33.483Z,96548.42
2019-02-10T18:42:28.715Z,96545.59
2019-02-10T18:45:29.351Z,96551.09
2019-02-10T18:48:09.003Z,96567.55
2019-02-10T18:51:01.801Z,96566.26
2019-02-10T18:53:53.305Z,96577.47
2019-02-10T18:56:39.199Z,96580.59
2019-02-10T18:59:28.391Z,96597.42
2019-02-10T19:02:20.217Z,96600.92
2019-02-10T19:05:21.327Z,96592.81
2019-02-10T19:08:18.584Z,96606.51
2019-02-10T19:10:57.439Z,96602.94
2019-02-10T19:13:43.106Z,96604.20
2019-02-10T19:16:50.325Z,96622.50
2019-02-10T19:19:42.959Z,96623.51
2019-02-10T19:22:50.256Z,96639.02
2019-02-10T19:25:40.181Z,96637.34
2019-02-10T19:28:31.845Z,96641.51
2019-02-10T19:31:26.360Z,96652.71
2019-02-10T19:34:28.639Z,96674.31
2019-02-10T19:37:20.475Z,96663.09
2019-02-10T19:40:17.899Z,96653.23
2019-02-10T19:43:16.799Z,96649.27
2019-02-10T19:46:08.418Z,96674.62
2019-02-10T19:48:59.643Z,96679.28
2019-02-10T19:51:52.533Z,96705.97
2019-02-10T19:54:33.509Z,96708.28
2019-02-10T19:57:28.250Z,96720.92
2019-02-10T20:00:19.710Z,96721.10
2019-02-10T20:03:11.024Z,96732.45
2019-02-10T20:06:08.739Z,96731.15
2019-02-10T20:09:00.297Z,96737.52
2019-02-10T20:11:52.302Z,96725.67
2019-02-10T20:14:49.860Z,96730.62
2019-02-10T20:17:39.268Z,96731.94
2019-02-10T20:20:39.978Z,96733.89
2019-02-10T20:23:32.122Z,96745.87
2019-02-10T20:26:23.306Z,96747.70
2019-02-10T20:29:15.142Z,96733.22
2019-02-10T20:32:06.014Z,96741.13
2019-02-10T20:34:52.446Z,96750.18
2019-02-10T20:37:42.451Z,96767.77
2019-02-10T20:40:27.467Z,96761.84
2019-02-10T20:43:08.983Z,96765.47
2019-02-10T20:46:12.889Z,96753.65
2019-02-10T20:49:05.074Z,96757.56
2019-02-10T20:51:46.794Z,96739.80
2019-02-10T20:54:38.691Z,96728.92
2019-02-10T20:57:20.633Z,96727.95
2019-02-10T21:00:21.216Z,96703.89
2019-02-10T21:03:05.640Z,96703.09
2019-02-10T21:06:00.618Z,96704.41
2019-02-10T21:09:07.740Z,96683.48
2019-02-10T21:11:57.777Z,96703.06
2019-02-10T21:14:46.415Z,96698.63
2019-02-10T21:17:27.874Z,96716.58
2019-02-10T21:20:31.595Z,96734.45
2019-02-10T21:23:28.396Z,96728.88
2019-02-10T21:26:20.019Z,96710.96
2019-02-10T21:29:02.853Z,96725.31
2019-02-10T21:31:52.570Z,96732.50
2019-02-10T21:34:40.206Z,96731.55
2019-02-10T21:37:37.803Z,96726.12
2019-02-10T21:40:21.791Z,96732.38
2019-02-10T21:43:13.580Z,96745.71
2019-02-10T21:46:05.268Z,96743.08
2019-02-10T21:48:50.940Z,96756.25
2019-02-10T21:51:23.654Z,96732.70
2019-02-10T21:53:55.965Z,96746.83
2019-02-10T21:56:28.952Z,96739.72
2019-02-10T21:59:00.180Z,96725.91
2019-02-10T22:01:32.232Z,96746.61
2019-02-10T22:04:04.667Z,96744.97
2019-02-10T22:06:36.999Z,96752.48
2019-02-10T22:09:09.649Z,96756.43
2019-02-10T22:11:41.981Z,96766.22
2019-02-10T22:14:14.861Z,96765.20
2019-02-10T22:16:53.759Z,96768.98
2019-02-10T22:19:26.748Z,96756.98
2019-02-10T22:21:59.534Z,96766.12
2019-02-10T22:24:31.966Z,96761.16
2019-02-10T22:27:04.684Z,96785.11
2019-02-10T22:29:37.040Z,96790.84
2019-02-10T22:32:09.430Z,96779.55
2019-02-10T22:34:41.765Z,96776.71
2019-02-10T22:37:13.838Z,96807.17
2019-02-10T22:39:46.040Z,96806.80
2019-02-10T22:42:18.394Z,96808.47
2019-02-10T22:44:50.502Z,96819.89
2019-02-10T22:47:22.817Z,96813.59
2019-02-10T22:49:55.120Z,96811.45
2019-02-10T22:52:27.549Z,96824.38
2019-02-10T22:55:00.271Z,96806.27
2019-02-10T22:57:32.600Z,96812.68
2019-02-10T23:00:07.033Z,96828.96
2019-02-10T23:02:39.665Z,96825.32
2019-02-10T23:05:11.735Z,96818.28
2019-02-10T23:07:44.436Z,96840.30
2019-02-10T23:10:16.760Z,96846.74
2019-02-10T23:12:53.734Z,96854.48
2019-02-10T23:15:23.534Z,96868.17
2019-02-10T23:17:55.868Z,96871.73
2019-02-10T23:20:28.270Z,96877.68
2019-02-10T23:23:00.613Z,96887.69
2019-02-10T23:25:32.697Z,96892.70
2019-02-10T23:28:04.972Z,96898.80
2019-02-10T23:30:37.685Z,96911.80
2019-02-10T23:33:10.110Z,96903.35
2019-02-10T23:35:42.417Z,96911.80
2019-02-10T23:38:14.587Z,96917.69
2019-02-10T23:40:46.658Z,96927.56
2019-02-10T23:43:19.362Z,96947.26
2019-02-10T23:45:51.895Z,96937.36
2019-02-10T23:48:24.799Z,96932.16
2019-02-10T23:50:57.467Z,96945.13
2019-02-10T23:53:30.244Z,96948.00
2019-02-10T23:56:02.557Z,96952.55
2019-02-10T23:58:35.155Z,96951.73
